KLBT

Lumberton Regional Airport

Lumberton, North Carolina, USA
METAR KLBT 231354Z AUTO 00000KT 7SM BKN050 16/16 A3047 RMK AO2 SLP318 T01560156
Observed Flight Rules
Feb-23 @ 13:54 UTC (38 minutes ago) Visual Flight Rules
Wind Visibility Clouds
Calm 7 miles
  • Broken at 5,000' AGL
Temperatures Readings
Current 16°C / 61°F
Dewpoint 16°C / 61°F
Humidity 100%
Altimeter 30.47" Hg
Pressure 1031.8 hPa
Elevation 37
METAR KLBT 231354Z AUTO 00000KT 7SM BKN050 16/16 A3047 RMK AO2 SLP318 T01560156
Observed Flight Rules
Feb-23 @ 13:54 UTC
(38 minutes ago)
VFR
Wind Visibility
Calm 7 miles
Clouds
  • Broken at 5,000' AGL
Temperature Dewpoint
16°C / 61°F 16°C / 61°F
Humidity Altimeter Pressure
100% 30.47" Hg 1031.8 hPa